sensor_id;sensor_type;location;lat;lon;timestamp;P1;durP1;ratioP1;P2;durP2;ratioP2
57441;SDS011;43284;47.042;15.498;2022-07-23T00:00:14;11.23;;;6.85;;
57441;SDS011;43284;47.042;15.498;2022-07-23T00:02:43;9.15;;;6.63;;
57441;SDS011;43284;47.042;15.498;2022-07-23T00:05:10;9.85;;;6.97;;
57441;SDS011;43284;47.042;15.498;2022-07-23T00:07:38;10.98;;;6.70;;
57441;SDS011;43284;47.042;15.498;2022-07-23T00:10:05;10.32;;;7.45;;
57441;SDS011;43284;47.042;15.498;2022-07-23T00:12:32;9.52;;;6.80;;
57441;SDS011;43284;47.042;15.498;2022-07-23T00:15:00;10.40;;;7.75;;
57441;SDS011;43284;47.042;15.498;2022-07-23T00:17:30;8.82;;;6.97;;
57441;SDS011;43284;47.042;15.498;2022-07-23T00:19:59;8.77;;;6.93;;
57441;SDS011;43284;47.042;15.498;2022-07-23T00:22:27;10.18;;;6.75;;
57441;SDS011;43284;47.042;15.498;2022-07-23T00:24:55;10.90;;;7.07;;
57441;SDS011;43284;47.042;15.498;2022-07-23T00:27:22;11.30;;;6.93;;
57441;SDS011;43284;47.042;15.498;2022-07-23T00:29:50;10.70;;;7.53;;
57441;SDS011;43284;47.042;15.498;2022-07-23T00:32:18;9.00;;;6.72;;
57441;SDS011;43284;47.042;15.498;2022-07-23T00:34:47;13.38;;;7.15;;
57441;SDS011;43284;47.042;15.498;2022-07-23T00:37:15;8.68;;;7.10;;
57441;SDS011;43284;47.042;15.498;2022-07-23T00:39:42;12.32;;;7.40;;
57441;SDS011;43284;47.042;15.498;2022-07-23T00:42:09;9.07;;;6.60;;
57441;SDS011;43284;47.042;15.498;2022-07-23T00:44:36;10.15;;;7.35;;
57441;SDS011;43284;47.042;15.498;2022-07-23T00:47:03;8.02;;;6.55;;
57441;SDS011;43284;47.042;15.498;2022-07-23T00:49:31;12.50;;;7.80;;
57441;SDS011;43284;47.042;15.498;2022-07-23T00:52:00;11.60;;;6.95;;
57441;SDS011;43284;47.042;15.498;2022-07-23T00:54:29;13.18;;;7.95;;
57441;SDS011;43284;47.042;15.498;2022-07-23T00:56:56;11.63;;;7.60;;
57441;SDS011;43284;47.042;15.498;2022-07-23T00:59:23;9.55;;;6.90;;
57441;SDS011;43284;47.042;15.498;2022-07-23T01:01:50;11.25;;;8.00;;
57441;SDS011;43284;47.042;15.498;2022-07-23T01:04:17;12.95;;;7.68;;
57441;SDS011;43284;47.042;15.498;2022-07-23T01:06:44;13.40;;;7.60;;
57441;SDS011;43284;47.042;15.498;2022-07-23T01:09:12;15.35;;;8.15;;
57441;SDS011;43284;47.042;15.498;2022-07-23T01:11:39;13.02;;;7.88;;
57441;SDS011;43284;47.042;15.498;2022-07-23T01:14:15;9.82;;;7.47;;
57441;SDS011;43284;47.042;15.498;2022-07-23T01:16:44;12.77;;;8.02;;
57441;SDS011;43284;47.042;15.498;2022-07-23T01:19:13;13.38;;;7.70;;
57441;SDS011;43284;47.042;15.498;2022-07-23T01:21:46;8.85;;;7.43;;
57441;SDS011;43284;47.042;15.498;2022-07-23T01:24:15;11.15;;;7.80;;
57441;SDS011;43284;47.042;15.498;2022-07-23T01:26:45;10.18;;;7.30;;
57441;SDS011;43284;47.042;15.498;2022-07-23T01:29:13;10.07;;;6.95;;
57441;SDS011;43284;47.042;15.498;2022-07-23T01:31:43;14.60;;;7.40;;
57441;SDS011;43284;47.042;15.498;2022-07-23T01:34:10;12.23;;;7.47;;
57441;SDS011;43284;47.042;15.498;2022-07-23T01:36:37;12.10;;;7.78;;
57441;SDS011;43284;47.042;15.498;2022-07-23T01:39:06;10.75;;;7.70;;
57441;SDS011;43284;47.042;15.498;2022-07-23T01:41:33;10.38;;;8.52;;
57441;SDS011;43284;47.042;15.498;2022-07-23T01:44:01;10.43;;;8.10;;
57441;SDS011;43284;47.042;15.498;2022-07-23T01:46:29;10.18;;;7.25;;
57441;SDS011;43284;47.042;15.498;2022-07-23T01:48:59;11.88;;;7.53;;
57441;SDS011;43284;47.042;15.498;2022-07-23T01:51:26;12.23;;;8.32;;
57441;SDS011;43284;47.042;15.498;2022-07-23T01:53:55;10.60;;;7.65;;
57441;SDS011;43284;47.042;15.498;2022-07-23T01:56:23;8.70;;;7.15;;
57441;SDS011;43284;47.042;15.498;2022-07-23T01:58:50;10.55;;;7.53;;
57441;SDS011;43284;47.042;15.498;2022-07-23T02:01:18;9.60;;;7.22;;
57441;SDS011;43284;47.042;15.498;2022-07-23T02:03:45;12.48;;;7.95;;
57441;SDS011;43284;47.042;15.498;2022-07-23T02:06:13;11.88;;;8.57;;
57441;SDS011;43284;47.042;15.498;2022-07-23T02:08:40;9.18;;;7.30;;
57441;SDS011;43284;47.042;15.498;2022-07-23T02:11:08;11.18;;;7.93;;
57441;SDS011;43284;47.042;15.498;2022-07-23T02:13:35;10.38;;;7.80;;
57441;SDS011;43284;47.042;15.498;2022-07-23T02:16:03;11.73;;;8.52;;
57441;SDS011;43284;47.042;15.498;2022-07-23T02:18:30;11.13;;;7.80;;
57441;SDS011;43284;47.042;15.498;2022-07-23T02:20:57;11.07;;;8.18;;
57441;SDS011;43284;47.042;15.498;2022-07-23T02:23:24;9.88;;;7.63;;
57441;SDS011;43284;47.042;15.498;2022-07-23T02:25:51;12.15;;;8.40;;
57441;SDS011;43284;47.042;15.498;2022-07-23T02:28:18;10.85;;;8.20;;
57441;SDS011;43284;47.042;15.498;2022-07-23T02:30:45;11.48;;;8.13;;
57441;SDS011;43284;47.042;15.498;2022-07-23T02:33:13;11.02;;;7.53;;
57441;SDS011;43284;47.042;15.498;2022-07-23T02:35:40;11.43;;;7.68;;
57441;SDS011;43284;47.042;15.498;2022-07-23T02:38:07;10.35;;;8.48;;
57441;SDS011;43284;47.042;15.498;2022-07-23T02:40:34;11.30;;;7.88;;
57441;SDS011;43284;47.042;15.498;2022-07-23T02:43:01;11.23;;;8.52;;
57441;SDS011;43284;47.042;15.498;2022-07-23T02:45:28;11.55;;;8.32;;
57441;SDS011;43284;47.042;15.498;2022-07-23T02:47:55;11.95;;;8.55;;
57441;SDS011;43284;47.042;15.498;2022-07-23T02:50:23;12.52;;;8.32;;
57441;SDS011;43284;47.042;15.498;2022-07-23T02:52:50;11.68;;;7.93;;
57441;SDS011;43284;47.042;15.498;2022-07-23T02:55:18;13.10;;;9.00;;
57441;SDS011;43284;47.042;15.498;2022-07-23T02:57:45;10.43;;;7.72;;
57441;SDS011;43284;47.042;15.498;2022-07-23T03:00:13;13.88;;;8.38;;
57441;SDS011;43284;47.042;15.498;2022-07-23T03:02:40;18.63;;;9.18;;
57441;SDS011;43284;47.042;15.498;2022-07-23T03:05:08;11.65;;;8.73;;
57441;SDS011;43284;47.042;15.498;2022-07-23T03:07:35;10.90;;;8.52;;
57441;SDS011;43284;47.042;15.498;2022-07-23T03:10:02;14.27;;;8.25;;
57441;SDS011;43284;47.042;15.498;2022-07-23T03:12:30;12.07;;;8.93;;
57441;SDS011;43284;47.042;15.498;2022-07-23T03:14:56;11.30;;;8.05;;
57441;SDS011;43284;47.042;15.498;2022-07-23T03:17:23;12.85;;;8.73;;
57441;SDS011;43284;47.042;15.498;2022-07-23T03:19:51;12.00;;;8.90;;
57441;SDS011;43284;47.042;15.498;2022-07-23T03:22:18;10.60;;;8.20;;
57441;SDS011;43284;47.042;15.498;2022-07-23T03:24:45;11.73;;;9.07;;
57441;SDS011;43284;47.042;15.498;2022-07-23T03:27:23;13.45;;;9.18;;
57441;SDS011;43284;47.042;15.498;2022-07-23T03:29:52;11.40;;;8.90;;
57441;SDS011;43284;47.042;15.498;2022-07-23T03:32:21;20.50;;;8.90;;
57441;SDS011;43284;47.042;15.498;2022-07-23T03:34:49;11.70;;;8.95;;
57441;SDS011;43284;47.042;15.498;2022-07-23T03:37:17;11.35;;;8.43;;
57441;SDS011;43284;47.042;15.498;2022-07-23T03:39:46;12.23;;;8.85;;
57441;SDS011;43284;47.042;15.498;2022-07-23T03:42:13;14.55;;;8.85;;
57441;SDS011;43284;47.042;15.498;2022-07-23T03:44:40;11.18;;;8.75;;
57441;SDS011;43284;47.042;15.498;2022-07-23T03:47:07;15.05;;;9.18;;
57441;SDS011;43284;47.042;15.498;2022-07-23T03:49:34;18.05;;;9.23;;
57441;SDS011;43284;47.042;15.498;2022-07-23T03:52:02;11.90;;;9.60;;
57441;SDS011;43284;47.042;15.498;2022-07-23T03:54:29;12.60;;;9.05;;
57441;SDS011;43284;47.042;15.498;2022-07-23T03:56:56;13.88;;;9.48;;
57441;SDS011;43284;47.042;15.498;2022-07-23T03:59:23;13.60;;;9.15;;
57441;SDS011;43284;47.042;15.498;2022-07-23T04:01:50;13.63;;;9.07;;
57441;SDS011;43284;47.042;15.498;2022-07-23T04:04:17;13.90;;;9.48;;
57441;SDS011;43284;47.042;15.498;2022-07-23T04:06:44;13.85;;;9.88;;
57441;SDS011;43284;47.042;15.498;2022-07-23T04:09:11;17.50;;;10.20;;
57441;SDS011;43284;47.042;15.498;2022-07-23T04:11:38;14.30;;;9.60;;
57441;SDS011;43284;47.042;15.498;2022-07-23T04:14:05;14.98;;;10.52;;
57441;SDS011;43284;47.042;15.498;2022-07-23T04:16:33;13.38;;;10.13;;
57441;SDS011;43284;47.042;15.498;2022-07-23T04:19:00;14.88;;;9.32;;
57441;SDS011;43284;47.042;15.498;2022-07-23T04:21:27;14.00;;;9.52;;
57441;SDS011;43284;47.042;15.498;2022-07-23T04:23:53;12.95;;;9.55;;
57441;SDS011;43284;47.042;15.498;2022-07-23T04:26:21;16.15;;;10.20;;
57441;SDS011;43284;47.042;15.498;2022-07-23T04:28:48;15.23;;;9.48;;
57441;SDS011;43284;47.042;15.498;2022-07-23T04:31:15;14.13;;;9.27;;
57441;SDS011;43284;47.042;15.498;2022-07-23T04:33:44;13.75;;;10.13;;
57441;SDS011;43284;47.042;15.498;2022-07-23T04:36:11;15.50;;;11.30;;
57441;SDS011;43284;47.042;15.498;2022-07-23T04:38:38;16.17;;;10.32;;
57441;SDS011;43284;47.042;15.498;2022-07-23T04:41:05;15.77;;;10.77;;
57441;SDS011;43284;47.042;15.498;2022-07-23T04:43:32;13.23;;;9.80;;
57441;SDS011;43284;47.042;15.498;2022-07-23T04:45:59;14.48;;;11.18;;
57441;SDS011;43284;47.042;15.498;2022-07-23T04:48:27;15.13;;;11.02;;
57441;SDS011;43284;47.042;15.498;2022-07-23T04:50:54;13.93;;;10.85;;
57441;SDS011;43284;47.042;15.498;2022-07-23T04:53:21;15.10;;;11.18;;
57441;SDS011;43284;47.042;15.498;2022-07-23T04:55:48;17.67;;;11.27;;
57441;SDS011;43284;47.042;15.498;2022-07-23T04:58:16;14.80;;;11.10;;
57441;SDS011;43284;47.042;15.498;2022-07-23T05:00:44;16.30;;;10.73;;
57441;SDS011;43284;47.042;15.498;2022-07-23T05:03:11;17.40;;;11.57;;
57441;SDS011;43284;47.042;15.498;2022-07-23T05:05:41;15.18;;;10.90;;
57441;SDS011;43284;47.042;15.498;2022-07-23T05:08:08;18.23;;;11.63;;
57441;SDS011;43284;47.042;15.498;2022-07-23T05:10:35;14.25;;;11.13;;
57441;SDS011;43284;47.042;15.498;2022-07-23T05:13:02;15.25;;;11.20;;
57441;SDS011;43284;47.042;15.498;2022-07-23T05:15:29;16.42;;;11.35;;
57441;SDS011;43284;47.042;15.498;2022-07-23T05:17:56;21.05;;;11.73;;
57441;SDS011;43284;47.042;15.498;2022-07-23T05:20:24;20.15;;;12.52;;
57441;SDS011;43284;47.042;15.498;2022-07-23T05:22:51;15.48;;;11.68;;
57441;SDS011;43284;47.042;15.498;2022-07-23T05:25:18;15.65;;;12.13;;
57441;SDS011;43284;47.042;15.498;2022-07-23T05:27:46;16.75;;;11.15;;
57441;SDS011;43284;47.042;15.498;2022-07-23T05:30:12;16.13;;;11.88;;
57441;SDS011;43284;47.042;15.498;2022-07-23T05:32:39;14.95;;;11.38;;
57441;SDS011;43284;47.042;15.498;2022-07-23T05:35:06;14.93;;;11.63;;
57441;SDS011;43284;47.042;15.498;2022-07-23T05:37:34;15.90;;;11.27;;
57441;SDS011;43284;47.042;15.498;2022-07-23T05:40:03;17.75;;;11.75;;
57441;SDS011;43284;47.042;15.498;2022-07-23T05:42:36;18.60;;;11.32;;
57441;SDS011;43284;47.042;15.498;2022-07-23T05:45:05;18.60;;;11.30;;
57441;SDS011;43284;47.042;15.498;2022-07-23T05:47:40;18.90;;;11.55;;
57441;SDS011;43284;47.042;15.498;2022-07-23T05:50:12;16.40;;;11.18;;
57441;SDS011;43284;47.042;15.498;2022-07-23T05:52:39;14.90;;;11.25;;
57441;SDS011;43284;47.042;15.498;2022-07-23T05:55:06;15.32;;;11.02;;
57441;SDS011;43284;47.042;15.498;2022-07-23T05:57:34;17.20;;;11.07;;
57441;SDS011;43284;47.042;15.498;2022-07-23T06:00:05;27.05;;;12.85;;
57441;SDS011;43284;47.042;15.498;2022-07-23T06:02:34;16.20;;;11.40;;
57441;SDS011;43284;47.042;15.498;2022-07-23T06:05:01;17.98;;;11.48;;
57441;SDS011;43284;47.042;15.498;2022-07-23T06:07:28;17.15;;;11.10;;
57441;SDS011;43284;47.042;15.498;2022-07-23T06:09:55;17.13;;;12.32;;
57441;SDS011;43284;47.042;15.498;2022-07-23T06:12:22;19.63;;;12.45;;
57441;SDS011;43284;47.042;15.498;2022-07-23T06:14:50;18.75;;;12.48;;
57441;SDS011;43284;47.042;15.498;2022-07-23T06:17:18;16.50;;;10.73;;
57441;SDS011;43284;47.042;15.498;2022-07-23T06:19:45;20.63;;;11.63;;
57441;SDS011;43284;47.042;15.498;2022-07-23T06:22:12;18.85;;;11.77;;
57441;SDS011;43284;47.042;15.498;2022-07-23T06:24:40;17.92;;;11.18;;
57441;SDS011;43284;47.042;15.498;2022-07-23T06:27:08;19.48;;;11.48;;
57441;SDS011;43284;47.042;15.498;2022-07-23T06:29:36;20.73;;;11.73;;
57441;SDS011;43284;47.042;15.498;2022-07-23T06:32:03;16.65;;;11.65;;
57441;SDS011;43284;47.042;15.498;2022-07-23T06:34:30;19.98;;;12.45;;
57441;SDS011;43284;47.042;15.498;2022-07-23T06:36:57;14.75;;;10.80;;
57441;SDS011;43284;47.042;15.498;2022-07-23T06:39:25;15.38;;;10.02;;
57441;SDS011;43284;47.042;15.498;2022-07-23T06:41:52;13.82;;;10.95;;
57441;SDS011;43284;47.042;15.498;2022-07-23T06:44:19;15.23;;;11.57;;
57441;SDS011;43284;47.042;15.498;2022-07-23T06:46:47;13.63;;;10.15;;
57441;SDS011;43284;47.042;15.498;2022-07-23T06:49:15;12.93;;;10.65;;
57441;SDS011;43284;47.042;15.498;2022-07-23T06:51:42;16.25;;;10.40;;
57441;SDS011;43284;47.042;15.498;2022-07-23T06:54:09;14.00;;;10.25;;
57441;SDS011;43284;47.042;15.498;2022-07-23T06:56:36;17.25;;;11.00;;
57441;SDS011;43284;47.042;15.498;2022-07-23T06:59:04;14.15;;;10.45;;
57441;SDS011;43284;47.042;15.498;2022-07-23T07:01:31;15.10;;;9.77;;
57441;SDS011;43284;47.042;15.498;2022-07-23T07:03:58;15.98;;;9.85;;
57441;SDS011;43284;47.042;15.498;2022-07-23T07:06:25;16.38;;;10.05;;
57441;SDS011;43284;47.042;15.498;2022-07-23T07:08:53;13.95;;;10.15;;
57441;SDS011;43284;47.042;15.498;2022-07-23T07:11:21;16.65;;;10.63;;
57441;SDS011;43284;47.042;15.498;2022-07-23T07:13:49;14.75;;;10.10;;
57441;SDS011;43284;47.042;15.498;2022-07-23T07:16:18;14.07;;;9.80;;
57441;SDS011;43284;47.042;15.498;2022-07-23T07:18:45;13.88;;;9.98;;
57441;SDS011;43284;47.042;15.498;2022-07-23T07:21:13;15.27;;;10.20;;
57441;SDS011;43284;47.042;15.498;2022-07-23T07:23:41;15.05;;;9.98;;
57441;SDS011;43284;47.042;15.498;2022-07-23T07:26:09;14.30;;;9.77;;
57441;SDS011;43284;47.042;15.498;2022-07-23T07:28:41;18.08;;;10.75;;
57441;SDS011;43284;47.042;15.498;2022-07-23T07:31:08;15.30;;;10.65;;
57441;SDS011;43284;47.042;15.498;2022-07-23T07:33:36;17.13;;;9.40;;
57441;SDS011;43284;47.042;15.498;2022-07-23T07:36:03;12.32;;;9.98;;
57441;SDS011;43284;47.042;15.498;2022-07-23T07:38:31;16.88;;;10.23;;
57441;SDS011;43284;47.042;15.498;2022-07-23T07:40:58;13.35;;;10.35;;
57441;SDS011;43284;47.042;15.498;2022-07-23T07:43:25;13.38;;;9.77;;
57441;SDS011;43284;47.042;15.498;2022-07-23T07:45:53;17.33;;;9.68;;
57441;SDS011;43284;47.042;15.498;2022-07-23T07:48:20;16.95;;;10.38;;
57441;SDS011;43284;47.042;15.498;2022-07-23T07:50:47;15.50;;;9.75;;
57441;SDS011;43284;47.042;15.498;2022-07-23T07:53:15;17.17;;;9.85;;
57441;SDS011;43284;47.042;15.498;2022-07-23T07:55:43;13.68;;;9.90;;
57441;SDS011;43284;47.042;15.498;2022-07-23T07:58:11;11.60;;;8.93;;
57441;SDS011;43284;47.042;15.498;2022-07-23T08:00:39;13.90;;;8.93;;
57441;SDS011;43284;47.042;15.498;2022-07-23T08:03:06;13.13;;;8.93;;
57441;SDS011;43284;47.042;15.498;2022-07-23T08:05:33;10.40;;;8.57;;
57441;SDS011;43284;47.042;15.498;2022-07-23T08:08:01;13.73;;;9.00;;
57441;SDS011;43284;47.042;15.498;2022-07-23T08:10:28;12.10;;;9.35;;
57441;SDS011;43284;47.042;15.498;2022-07-23T08:12:57;12.55;;;9.10;;
57441;SDS011;43284;47.042;15.498;2022-07-23T08:15:27;11.82;;;9.07;;
57441;SDS011;43284;47.042;15.498;2022-07-23T08:17:55;12.80;;;9.35;;
57441;SDS011;43284;47.042;15.498;2022-07-23T08:20:23;15.15;;;9.52;;
57441;SDS011;43284;47.042;15.498;2022-07-23T08:22:59;14.20;;;9.57;;
57441;SDS011;43284;47.042;15.498;2022-07-23T08:25:32;15.48;;;10.02;;
57441;SDS011;43284;47.042;15.498;2022-07-23T08:28:01;13.35;;;9.15;;
57441;SDS011;43284;47.042;15.498;2022-07-23T08:30:30;11.40;;;9.20;;
57441;SDS011;43284;47.042;15.498;2022-07-23T08:33:05;12.30;;;10.18;;
57441;SDS011;43284;47.042;15.498;2022-07-23T08:35:41;16.95;;;9.95;;
57441;SDS011;43284;47.042;15.498;2022-07-23T08:38:10;11.73;;;9.70;;
57441;SDS011;43284;47.042;15.498;2022-07-23T08:40:39;12.55;;;9.25;;
57441;SDS011;43284;47.042;15.498;2022-07-23T08:43:09;14.43;;;10.05;;
57441;SDS011;43284;47.042;15.498;2022-07-23T08:45:39;10.55;;;8.73;;
57441;SDS011;43284;47.042;15.498;2022-07-23T08:48:10;15.18;;;9.60;;
57441;SDS011;43284;47.042;15.498;2022-07-23T08:50:44;12.02;;;9.30;;
57441;SDS011;43284;47.042;15.498;2022-07-23T08:53:13;15.48;;;9.95;;
57441;SDS011;43284;47.042;15.498;2022-07-23T08:55:45;13.05;;;10.13;;
57441;SDS011;43284;47.042;15.498;2022-07-23T08:58:14;11.95;;;9.93;;
57441;SDS011;43284;47.042;15.498;2022-07-23T09:00:42;12.02;;;9.00;;
57441;SDS011;43284;47.042;15.498;2022-07-23T09:03:20;12.95;;;9.55;;
57441;SDS011;43284;47.042;15.498;2022-07-23T09:05:53;12.57;;;9.88;;
57441;SDS011;43284;47.042;15.498;2022-07-23T09:08:35;14.23;;;9.65;;
57441;SDS011;43284;47.042;15.498;2022-07-23T09:11:09;13.52;;;9.63;;
57441;SDS011;43284;47.042;15.498;2022-07-23T09:13:42;11.00;;;8.65;;
57441;SDS011;43284;47.042;15.498;2022-07-23T09:16:24;15.57;;;8.93;;
57441;SDS011;43284;47.042;15.498;2022-07-23T09:18:56;12.10;;;8.65;;
57441;SDS011;43284;47.042;15.498;2022-07-23T09:21:30;10.90;;;8.60;;
57441;SDS011;43284;47.042;15.498;2022-07-23T09:23:59;10.95;;;8.43;;
57441;SDS011;43284;47.042;15.498;2022-07-23T09:26:43;12.50;;;8.85;;
57441;SDS011;43284;47.042;15.498;2022-07-23T09:29:20;12.93;;;9.57;;
57441;SDS011;43284;47.042;15.498;2022-07-23T09:31:54;10.75;;;8.50;;
57441;SDS011;43284;47.042;15.498;2022-07-23T09:34:28;13.70;;;9.05;;
57441;SDS011;43284;47.042;15.498;2022-07-23T09:37:20;15.18;;;8.95;;
57441;SDS011;43284;47.042;15.498;2022-07-23T09:39:49;10.85;;;8.57;;
57441;SDS011;43284;47.042;15.498;2022-07-23T09:42:18;12.43;;;8.10;;
57441;SDS011;43284;47.042;15.498;2022-07-23T09:44:52;9.63;;;8.25;;
57441;SDS011;43284;47.042;15.498;2022-07-23T09:47:22;10.30;;;8.32;;
57441;SDS011;43284;47.042;15.498;2022-07-23T09:52:47;11.25;;;8.02;;
57441;SDS011;43284;47.042;15.498;2022-07-23T09:55:16;9.05;;;7.75;;
57441;SDS011;43284;47.042;15.498;2022-07-23T09:57:45;9.32;;;7.65;;
57441;SDS011;43284;47.042;15.498;2022-07-23T10:00:19;10.40;;;7.68;;
57441;SDS011;43284;47.042;15.498;2022-07-23T10:02:46;9.80;;;6.72;;
57441;SDS011;43284;47.042;15.498;2022-07-23T10:05:15;9.70;;;6.97;;
57441;SDS011;43284;47.042;15.498;2022-07-23T10:07:44;10.15;;;7.68;;
57441;SDS011;43284;47.042;15.498;2022-07-23T10:10:12;9.38;;;6.78;;
57441;SDS011;43284;47.042;15.498;2022-07-23T10:12:43;9.57;;;6.22;;
57441;SDS011;43284;47.042;15.498;2022-07-23T10:15:18;10.57;;;7.18;;
57441;SDS011;43284;47.042;15.498;2022-07-23T10:17:45;9.05;;;6.25;;
57441;SDS011;43284;47.042;15.498;2022-07-23T10:20:14;10.70;;;7.10;;
57441;SDS011;43284;47.042;15.498;2022-07-23T10:22:47;8.55;;;6.90;;
57441;SDS011;43284;47.042;15.498;2022-07-23T10:25:54;7.95;;;6.25;;
57441;SDS011;43284;47.042;15.498;2022-07-23T10:31:20;9.52;;;6.80;;
57441;SDS011;43284;47.042;15.498;2022-07-23T10:39:19;14.10;;;6.75;;
57441;SDS011;43284;47.042;15.498;2022-07-23T10:41:53;10.02;;;6.75;;
57441;SDS011;43284;47.042;15.498;2022-07-23T10:44:46;7.70;;;6.60;;
57441;SDS011;43284;47.042;15.498;2022-07-23T10:47:35;10.38;;;6.90;;
57441;SDS011;43284;47.042;15.498;2022-07-23T10:50:17;7.40;;;6.50;;
57441;SDS011;43284;47.042;15.498;2022-07-23T10:55:42;8.95;;;7.10;;
57441;SDS011;43284;47.042;15.498;2022-07-23T10:58:20;9.80;;;7.55;;
57441;SDS011;43284;47.042;15.498;2022-07-23T11:00:49;8.88;;;6.68;;
57441;SDS011;43284;47.042;15.498;2022-07-23T11:03:31;9.85;;;6.88;;
57441;SDS011;43284;47.042;15.498;2022-07-23T11:06:02;9.40;;;6.60;;
57441;SDS011;43284;47.042;15.498;2022-07-23T11:08:30;10.00;;;6.75;;
57441;SDS011;43284;47.042;15.498;2022-07-23T11:13:42;10.70;;;7.72;;
57441;SDS011;43284;47.042;15.498;2022-07-23T11:16:16;9.13;;;6.80;;
57441;SDS011;43284;47.042;15.498;2022-07-23T11:18:53;9.38;;;7.25;;
57441;SDS011;43284;47.042;15.498;2022-07-23T11:24:03;8.98;;;7.00;;
57441;SDS011;43284;47.042;15.498;2022-07-23T11:26:43;8.52;;;6.90;;
57441;SDS011;43284;47.042;15.498;2022-07-23T11:32:08;14.82;;;6.85;;
57441;SDS011;43284;47.042;15.498;2022-07-23T11:34:50;10.13;;;6.88;;
57441;SDS011;43284;47.042;15.498;2022-07-23T11:39:59;8.82;;;7.93;;
57441;SDS011;43284;47.042;15.498;2022-07-23T11:42:30;8.90;;;7.13;;
57441;SDS011;43284;47.042;15.498;2022-07-23T11:44:58;13.52;;;8.27;;
57441;SDS011;43284;47.042;15.498;2022-07-23T11:47:26;7.85;;;6.85;;
57441;SDS011;43284;47.042;15.498;2022-07-23T11:50:01;10.95;;;7.28;;
57441;SDS011;43284;47.042;15.498;2022-07-23T11:52:32;12.02;;;8.10;;
57441;SDS011;43284;47.042;15.498;2022-07-23T11:55:01;7.78;;;6.72;;
57441;SDS011;43284;47.042;15.498;2022-07-23T11:57:33;8.90;;;6.88;;
57441;SDS011;43284;47.042;15.498;2022-07-23T12:02:53;10.30;;;7.60;;
57441;SDS011;43284;47.042;15.498;2022-07-23T12:05:25;8.35;;;6.63;;
57441;SDS011;43284;47.042;15.498;2022-07-23T12:07:56;11.48;;;6.95;;
57441;SDS011;43284;47.042;15.498;2022-07-23T12:10:26;10.30;;;7.55;;
57441;SDS011;43284;47.042;15.498;2022-07-23T12:12:59;9.07;;;6.95;;
57441;SDS011;43284;47.042;15.498;2022-07-23T12:15:38;8.45;;;7.20;;
57441;SDS011;43284;47.042;15.498;2022-07-23T12:18:08;9.98;;;7.55;;
57441;SDS011;43284;47.042;15.498;2022-07-23T12:20:46;10.45;;;7.47;;
57441;SDS011;43284;47.042;15.498;2022-07-23T12:23:17;10.70;;;7.50;;
57441;SDS011;43284;47.042;15.498;2022-07-23T12:25:46;9.32;;;7.25;;
57441;SDS011;43284;47.042;15.498;2022-07-23T12:28:16;9.73;;;7.38;;
57441;SDS011;43284;47.042;15.498;2022-07-23T12:30:49;10.70;;;7.93;;
57441;SDS011;43284;47.042;15.498;2022-07-23T12:33:22;9.57;;;7.72;;
57441;SDS011;43284;47.042;15.498;2022-07-23T12:38:23;14.00;;;7.32;;
57441;SDS011;43284;47.042;15.498;2022-07-23T12:40:52;8.93;;;7.00;;
57441;SDS011;43284;47.042;15.498;2022-07-23T12:43:22;11.45;;;7.68;;
57441;SDS011;43284;47.042;15.498;2022-07-23T12:46:02;10.05;;;7.63;;
57441;SDS011;43284;47.042;15.498;2022-07-23T12:48:37;8.00;;;7.20;;
57441;SDS011;43284;47.042;15.498;2022-07-23T12:51:07;9.93;;;7.45;;
57441;SDS011;43284;47.042;15.498;2022-07-23T12:53:42;9.15;;;6.43;;
57441;SDS011;43284;47.042;15.498;2022-07-23T12:56:11;9.45;;;7.40;;
57441;SDS011;43284;47.042;15.498;2022-07-23T12:58:44;11.35;;;7.10;;
57441;SDS011;43284;47.042;15.498;2022-07-23T13:04:02;9.88;;;7.05;;
57441;SDS011;43284;47.042;15.498;2022-07-23T13:06:38;7.88;;;6.88;;
57441;SDS011;43284;47.042;15.498;2022-07-23T13:09:07;10.38;;;7.15;;
57441;SDS011;43284;47.042;15.498;2022-07-23T13:11:38;13.45;;;6.78;;
57441;SDS011;43284;47.042;15.498;2022-07-23T13:14:06;10.07;;;7.10;;
57441;SDS011;43284;47.042;15.498;2022-07-23T13:16:33;8.00;;;7.13;;
57441;SDS011;43284;47.042;15.498;2022-07-23T13:19:00;9.75;;;6.95;;
57441;SDS011;43284;47.042;15.498;2022-07-23T13:21:28;7.10;;;6.15;;
57441;SDS011;43284;47.042;15.498;2022-07-23T13:23:56;12.48;;;7.00;;
57441;SDS011;43284;47.042;15.498;2022-07-23T13:26:24;10.13;;;7.07;;
57441;SDS011;43284;47.042;15.498;2022-07-23T13:28:52;11.82;;;7.15;;
57441;SDS011;43284;47.042;15.498;2022-07-23T13:31:21;8.95;;;6.35;;
57441;SDS011;43284;47.042;15.498;2022-07-23T13:33:48;7.28;;;6.15;;
57441;SDS011;43284;47.042;15.498;2022-07-23T13:36:19;8.65;;;7.00;;
57441;SDS011;43284;47.042;15.498;2022-07-23T13:38:46;6.95;;;6.25;;
57441;SDS011;43284;47.042;15.498;2022-07-23T13:41:14;13.13;;;7.53;;
57441;SDS011;43284;47.042;15.498;2022-07-23T13:43:44;8.63;;;6.95;;
57441;SDS011;43284;47.042;15.498;2022-07-23T13:46:11;7.38;;;6.10;;
57441;SDS011;43284;47.042;15.498;2022-07-23T13:48:38;9.10;;;6.65;;
57441;SDS011;43284;47.042;15.498;2022-07-23T13:51:06;7.75;;;6.43;;
57441;SDS011;43284;47.042;15.498;2022-07-23T13:53:34;14.30;;;7.18;;
57441;SDS011;43284;47.042;15.498;2022-07-23T13:56:03;9.68;;;7.20;;
57441;SDS011;43284;47.042;15.498;2022-07-23T13:58:33;10.80;;;6.75;;
57441;SDS011;43284;47.042;15.498;2022-07-23T14:01:01;10.05;;;7.10;;
57441;SDS011;43284;47.042;15.498;2022-07-23T14:03:28;7.93;;;7.10;;
57441;SDS011;43284;47.042;15.498;2022-07-23T14:05:56;9.10;;;6.43;;
57441;SDS011;43284;47.042;15.498;2022-07-23T14:08:27;11.15;;;6.60;;
57441;SDS011;43284;47.042;15.498;2022-07-23T14:10:54;8.40;;;6.85;;
57441;SDS011;43284;47.042;15.498;2022-07-23T14:13:22;10.30;;;7.25;;
57441;SDS011;43284;47.042;15.498;2022-07-23T14:15:49;9.15;;;6.80;;
57441;SDS011;43284;47.042;15.498;2022-07-23T14:18:17;7.18;;;6.22;;
57441;SDS011;43284;47.042;15.498;2022-07-23T14:20:44;7.57;;;6.53;;
57441;SDS011;43284;47.042;15.498;2022-07-23T14:23:12;9.50;;;6.72;;
57441;SDS011;43284;47.042;15.498;2022-07-23T14:25:39;10.73;;;6.68;;
57441;SDS011;43284;47.042;15.498;2022-07-23T14:28:06;8.48;;;6.93;;
57441;SDS011;43284;47.042;15.498;2022-07-23T14:30:33;7.10;;;6.30;;
57441;SDS011;43284;47.042;15.498;2022-07-23T14:33:01;10.10;;;6.65;;
57441;SDS011;43284;47.042;15.498;2022-07-23T14:35:28;7.88;;;6.55;;
57441;SDS011;43284;47.042;15.498;2022-07-23T14:37:56;7.80;;;6.35;;
57441;SDS011;43284;47.042;15.498;2022-07-23T14:40:24;7.68;;;6.40;;
57441;SDS011;43284;47.042;15.498;2022-07-23T14:42:52;7.22;;;6.53;;
57441;SDS011;43284;47.042;15.498;2022-07-23T14:45:23;6.93;;;6.22;;
57441;SDS011;43284;47.042;15.498;2022-07-23T14:47:50;9.13;;;6.65;;
57441;SDS011;43284;47.042;15.498;2022-07-23T14:50:18;7.78;;;6.97;;
57441;SDS011;43284;47.042;15.498;2022-07-23T14:52:45;9.95;;;6.80;;
57441;SDS011;43284;47.042;15.498;2022-07-23T14:55:13;7.55;;;5.63;;
57441;SDS011;43284;47.042;15.498;2022-07-23T14:57:43;6.90;;;6.25;;
57441;SDS011;43284;47.042;15.498;2022-07-23T15:00:10;7.82;;;6.20;;
57441;SDS011;43284;47.042;15.498;2022-07-23T15:02:39;9.32;;;6.13;;
57441;SDS011;43284;47.042;15.498;2022-07-23T15:05:07;6.13;;;5.38;;